createdAt,value
2023-02-04T00:01:02.181Z,102770.59
2023-02-04T00:03:28.508Z,102766.53
2023-02-04T00:05:54.886Z,102775.88
2023-02-04T00:08:21.325Z,102795.16
2023-02-04T00:10:47.667Z,102789.81
2023-02-04T00:13:14.045Z,102793.00
2023-02-04T00:15:40.412Z,102799.28
2023-02-04T00:18:07.218Z,102811.69
2023-02-04T00:20:33.764Z,102816.81
2023-02-04T00:23:00.132Z,102827.16
2023-02-04T00:25:26.504Z,102828.03
2023-02-04T00:27:52.962Z,102842.84
2023-02-04T00:30:19.545Z,102848.72
2023-02-04T00:32:45.920Z,102853.56
2023-02-04T00:35:15.455Z,102848.69
2023-02-04T00:37:41.814Z,102871.19
2023-02-04T00:40:08.917Z,102876.53
2023-02-04T00:42:35.306Z,102878.59
2023-02-04T00:45:01.657Z,102887.50
2023-02-04T00:47:28.019Z,102883.28
2023-02-04T00:49:54.361Z,102887.22
2023-02-04T00:52:20.842Z,102892.22
2023-02-04T00:54:47.202Z,102886.09
2023-02-04T00:57:13.583Z,102901.81
2023-02-04T00:59:40.001Z,102900.66
2023-02-04T01:02:06.443Z,102909.00
2023-02-04T01:04:32.825Z,102914.34
2023-02-04T01:06:59.670Z,102929.44
2023-02-04T01:09:25.998Z,102933.00
2023-02-04T01:11:52.411Z,102939.16
2023-02-04T01:14:18.732Z,102956.63
2023-02-04T01:16:45.859Z,102964.16
2023-02-04T01:19:12.685Z,102972.97
2023-02-04T01:21:40.928Z,102974.25
2023-02-04T01:24:07.449Z,102984.56
2023-02-04T01:26:33.786Z,102986.59
2023-02-04T01:29:00.246Z,102991.69
2023-02-04T01:31:26.835Z,102998.81
2023-02-04T01:33:53.235Z,102996.38
2023-02-04T01:36:21.661Z,103001.84
2023-02-04T01:38:49.425Z,102997.75
2023-02-04T01:41:17.352Z,103003.75
2023-02-04T01:43:44.065Z,103005.63
2023-02-04T01:46:10.515Z,103007.88
2023-02-04T01:48:37.005Z,103005.53
2023-02-04T01:51:07.535Z,103012.72
2023-02-04T01:53:34.816Z,103016.91
2023-02-04T01:56:02.340Z,103019.84
2023-02-04T01:58:31.911Z,103026.66
2023-02-04T02:00:58.280Z,103031.81
2023-02-04T02:03:24.788Z,103036.38
2023-02-04T02:05:53.930Z,103041.41
2023-02-04T02:08:20.468Z,103056.72
2023-02-04T02:10:49.178Z,103048.16
2023-02-04T02:13:18.396Z,103058.09
2023-02-04T02:15:45.052Z,103056.78
2023-02-04T02:18:11.519Z,103066.22
2023-02-04T02:20:38.262Z,103065.53
2023-02-04T02:23:12.637Z,103068.38
2023-02-04T02:25:39.148Z,103072.84
2023-02-04T02:28:09.607Z,103085.94
2023-02-04T02:30:36.170Z,103102.66
2023-02-04T02:33:03.277Z,103103.47
2023-02-04T02:35:29.676Z,103114.41
2023-02-04T02:37:56.805Z,103112.75
2023-02-04T02:40:23.401Z,103127.63
2023-02-04T02:42:51.888Z,103124.09
2023-02-04T02:45:27.160Z,103137.00
2023-02-04T02:47:56.204Z,103143.44
2023-02-04T02:50:27.116Z,103151.19
2023-02-04T02:52:54.166Z,103146.06
2023-02-04T02:55:23.744Z,103158.72
2023-02-04T02:57:52.177Z,103159.47
2023-02-04T03:00:27.064Z,103160.06
2023-02-04T03:03:07.104Z,103158.81
2023-02-04T03:05:44.637Z,103170.34
2023-02-04T03:08:14.456Z,103178.56
2023-02-04T03:10:42.286Z,103181.75
2023-02-04T03:13:10.002Z,103179.34
2023-02-04T03:15:36.702Z,103177.97
2023-02-04T03:18:03.718Z,103185.00
2023-02-04T03:20:32.535Z,103195.94
2023-02-04T03:22:59.367Z,103201.81
2023-02-04T03:25:28.792Z,103208.13
2023-02-04T03:27:57.767Z,103219.34
2023-02-04T03:30:25.153Z,103225.78
2023-02-04T03:32:51.903Z,103236.84
2023-02-04T03:35:18.656Z,103236.66
2023-02-04T03:37:45.432Z,103236.13
2023-02-04T03:40:12.578Z,103254.84
2023-02-04T03:42:39.007Z,103258.81
2023-02-04T03:45:05.684Z,103255.22
2023-02-04T03:47:32.075Z,103262.16
2023-02-04T03:49:58.404Z,103272.63
2023-02-04T03:52:24.769Z,103272.97
2023-02-04T03:54:51.102Z,103275.53
2023-02-04T03:57:17.936Z,103269.66
2023-02-04T03:59:44.332Z,103286.63
2023-02-04T04:02:10.665Z,103291.56
2023-02-04T04:04:37.218Z,103292.16
2023-02-04T04:07:03.537Z,103291.72
2023-02-04T04:09:29.888Z,103308.38
2023-02-04T04:11:56.412Z,103309.84
2023-02-04T04:14:22.801Z,103296.22
2023-02-04T04:16:49.132Z,103305.66
2023-02-04T04:19:15.506Z,103315.09
2023-02-04T04:21:41.840Z,103318.69
2023-02-04T04:24:08.432Z,103324.81
2023-02-04T04:26:34.830Z,103328.72
2023-02-04T04:29:01.587Z,103338.34
2023-02-04T04:31:28.022Z,103335.63
2023-02-04T04:33:54.822Z,103338.34
2023-02-04T04:36:21.154Z,103334.56
2023-02-04T04:38:47.518Z,103337.56
2023-02-04T04:41:13.843Z,103338.00
2023-02-04T04:43:40.197Z,103338.94
2023-02-04T04:46:06.652Z,103345.66
2023-02-04T04:48:33.047Z,103358.97
2023-02-04T04:50:59.388Z,103361.06
2023-02-04T04:53:25.745Z,103355.97
2023-02-04T04:55:52.072Z,103368.44
2023-02-04T04:58:18.439Z,103370.97
2023-02-04T05:00:44.798Z,103377.88
2023-02-04T05:03:11.230Z,103381.16
2023-02-04T05:05:40.775Z,103396.16
2023-02-04T05:08:13.239Z,103396.31
2023-02-04T05:10:40.897Z,103401.56
2023-02-04T05:13:07.464Z,103413.56
2023-02-04T05:15:34.150Z,103413.84
2023-02-04T05:18:00.742Z,103420.13
2023-02-04T05:20:27.129Z,103429.44
2023-02-04T05:22:54.524Z,103424.78
2023-02-04T05:25:20.862Z,103431.53
2023-02-04T05:27:47.253Z,103430.47
2023-02-04T05:30:14.612Z,103433.03
2023-02-04T05:32:41.269Z,103443.06
2023-02-04T05:35:08.574Z,103443.22
2023-02-04T05:37:34.950Z,103452.97
2023-02-04T05:40:01.413Z,103443.81
2023-02-04T05:42:27.742Z,103450.13
2023-02-04T05:44:54.099Z,103457.63
2023-02-04T05:47:20.485Z,103468.41
2023-02-04T05:49:46.930Z,103462.72
2023-02-04T05:52:13.287Z,103468.41
2023-02-04T05:54:39.682Z,103470.66
2023-02-04T05:57:06.008Z,103476.94
2023-02-04T05:59:32.396Z,103470.47
2023-02-04T06:01:58.748Z,103482.34
2023-02-04T06:04:25.571Z,103477.69
2023-02-04T06:06:51.922Z,103473.66
2023-02-04T06:09:18.281Z,103483.13
2023-02-04T06:11:44.602Z,103480.72
2023-02-04T06:14:10.967Z,103493.63
2023-02-04T06:16:37.368Z,103497.19
2023-02-04T06:19:03.782Z,103501.41
2023-02-04T06:21:30.096Z,103501.56
2023-02-04T06:23:56.544Z,103512.06
2023-02-04T06:26:22.929Z,103508.91
2023-02-04T06:28:49.461Z,103510.72
2023-02-04T06:31:15.900Z,103514.28
2023-02-04T06:33:42.693Z,103523.31
2023-02-04T06:36:09.045Z,103515.63
2023-02-04T06:38:35.430Z,103519.81
2023-02-04T06:41:01.775Z,103523.25
2023-02-04T06:43:28.535Z,103525.75
2023-02-04T06:45:55.220Z,103534.13
2023-02-04T06:48:22.285Z,103544.50
2023-02-04T06:50:48.671Z,103551.13
2023-02-04T06:53:15.154Z,103555.44
2023-02-04T06:55:41.922Z,103564.53
2023-02-04T06:58:08.525Z,103564.22
2023-02-04T07:00:35.163Z,103571.16
2023-02-04T07:03:01.645Z,103567.69
2023-02-04T07:05:28.047Z,103569.94
2023-02-04T07:07:54.417Z,103579.25
2023-02-04T07:10:23.766Z,103584.03
2023-02-04T07:12:50.105Z,103581.63
2023-02-04T07:15:16.703Z,103584.28
2023-02-04T07:17:43.065Z,103595.03
2023-02-04T07:20:11.096Z,103603.50
2023-02-04T07:22:37.748Z,103607.88
2023-02-04T07:25:04.622Z,103609.09
2023-02-04T07:27:30.974Z,103612.84
2023-02-04T07:29:57.332Z,103614.06
2023-02-04T07:32:23.660Z,103615.84
2023-02-04T07:34:50.137Z,103616.31
2023-02-04T07:37:16.462Z,103617.09
2023-02-04T07:39:42.827Z,103621.56
2023-02-04T07:42:09.281Z,103615.31
2023-02-04T07:44:35.638Z,103626.25
2023-02-04T07:47:01.973Z,103630.16
2023-02-04T07:49:28.895Z,103645.34
2023-02-04T07:51:55.281Z,103636.91
2023-02-04T07:54:21.676Z,103647.13
2023-02-04T07:56:47.997Z,103647.56
2023-02-04T07:59:14.365Z,103636.06
2023-02-04T08:01:40.761Z,103640.41
2023-02-04T08:04:07.181Z,103642.38
2023-02-04T08:06:33.525Z,103631.16
2023-02-04T08:08:59.960Z,103647.81
2023-02-04T08:11:27.059Z,103645.13
2023-02-04T08:13:53.429Z,103647.69
2023-02-04T08:16:19.803Z,103651.13
2023-02-04T08:18:46.589Z,103658.91
2023-02-04T08:21:12.920Z,103659.41
2023-02-04T08:23:42.195Z,103657.75
2023-02-04T08:26:11.017Z,103656.38
2023-02-04T08:28:38.040Z,103666.16
2023-02-04T08:31:11.732Z,103661.66
2023-02-04T08:33:40.184Z,103671.41
2023-02-04T08:36:07.325Z,103669.16
2023-02-04T08:38:33.896Z,103667.84
2023-02-04T08:41:00.564Z,103668.88
2023-02-04T08:43:27.068Z,103670.97
2023-02-04T08:45:53.842Z,103675.16
2023-02-04T08:48:20.178Z,103682.38
2023-02-04T08:50:46.540Z,103684.66
2023-02-04T08:53:12.871Z,103686.28
2023-02-04T08:55:39.291Z,103692.91
2023-02-04T08:58:05.690Z,103694.88
2023-02-04T09:00:32.496Z,103696.63
2023-02-04T09:02:59.072Z,103690.66
2023-02-04T09:05:25.462Z,103696.50
2023-02-04T09:07:51.877Z,103701.59
2023-02-04T09:10:18.345Z,103700.72
2023-02-04T09:12:44.750Z,103698.31
2023-02-04T09:15:12.162Z,103699.19
2023-02-04T09:17:38.952Z,103699.50
2023-02-04T09:20:06.548Z,103706.13
2023-02-04T09:22:32.953Z,103713.63
2023-02-04T09:24:59.327Z,103715.44
2023-02-04T09:27:25.648Z,103722.31
2023-02-04T09:29:52.010Z,103724.28
2023-02-04T09:32:18.359Z,103725.66
2023-02-04T09:34:44.723Z,103722.63
2023-02-04T09:37:11.067Z,103726.84
2023-02-04T09:39:37.448Z,103729.84
2023-02-04T09:42:03.985Z,103731.06
2023-02-04T09:44:30.428Z,103730.56
2023-02-04T09:46:59.619Z,103731.66
2023-02-04T09:49:27.992Z,103737.94
2023-02-04T09:51:55.679Z,103741.06
2023-02-04T09:54:23.573Z,103747.25
2023-02-04T09:56:50.806Z,103742.16
2023-02-04T09:59:24.117Z,103741.69
2023-02-04T10:01:57.373Z,103742.88
2023-02-04T10:04:24.176Z,103742.56
2023-02-04T10:06:50.671Z,103749.00
2023-02-04T10:09:17.914Z,103752.94
2023-02-04T10:11:47.977Z,103757.59
2023-02-04T10:14:17.794Z,103763.28
2023-02-04T10:16:53.812Z,103765.78
2023-02-04T10:19:20.337Z,103773.22
2023-02-04T10:21:47.199Z,103776.53
2023-02-04T10:24:16.409Z,103759.63
2023-02-04T10:26:42.904Z,103757.16
2023-02-04T10:29:18.172Z,103760.72
2023-02-04T10:31:47.202Z,103760.38
2023-02-04T10:34:18.896Z,103764.38
2023-02-04T10:36:48.068Z,103753.47
2023-02-04T10:39:27.867Z,103760.38
2023-02-04T10:42:01.424Z,103770.25
2023-02-04T10:44:30.984Z,103763.69
2023-02-04T10:47:21.090Z,103769.47
2023-02-04T10:50:02.872Z,103783.44
2023-02-04T10:52:38.074Z,103782.78
2023-02-04T10:55:09.052Z,103787.09
2023-02-04T10:57:39.180Z,103779.75
2023-02-04T11:00:17.157Z,103781.00
2023-02-04T11:03:07.276Z,103780.63
2023-02-04T11:05:35.469Z,103776.97
2023-02-04T11:08:03.295Z,103779.53
2023-02-04T11:10:34.556Z,103772.31
2023-02-04T11:13:06.580Z,103772.88
2023-02-04T11:15:50.418Z,103772.13
2023-02-04T11:18:19.944Z,103783.19
2023-02-04T11:20:50.600Z,103785.47
2023-02-04T11:23:25.903Z,103779.41
2023-02-04T11:26:13.278Z,103777.25
2023-02-04T11:28:45.247Z,103778.03
2023-02-04T11:31:20.691Z,103781.19
2023-02-04T11:33:48.414Z,103778.78
2023-02-04T11:36:16.072Z,103780.59
2023-02-04T11:38:47.584Z,103775.09
2023-02-04T11:41:30.731Z,103772.50
2023-02-04T11:43:57.818Z,103779.16
2023-02-04T11:46:27.747Z,103780.66
2023-02-04T11:48:55.779Z,103782.22
2023-02-04T11:51:29.791Z,103777.63
2023-02-04T11:53:56.123Z,103777.13
2023-02-04T11:56:23.295Z,103781.59
2023-02-04T11:58:51.463Z,103798.19
2023-02-04T12:01:24.995Z,103791.78
2023-02-04T12:04:00.084Z,103797.69
2023-02-04T12:06:29.923Z,103789.78
2023-02-04T12:09:07.530Z,103801.81
2023-02-04T12:11:33.991Z,103798.78
2023-02-04T12:14:09.454Z,103792.03
2023-02-04T12:16:46.049Z,103792.47
2023-02-04T12:19:13.938Z,103802.25
2023-02-04T12:21:40.885Z,103796.63
2023-02-04T12:24:07.391Z,103792.88
2023-02-04T12:26:33.850Z,103788.13
2023-02-04T12:29:02.784Z,103797.63
2023-02-04T12:31:29.925Z,103796.63
2023-02-04T12:33:56.343Z,103788.66
2023-02-04T12:36:22.762Z,103790.97
2023-02-04T12:38:49.085Z,103787.09
2023-02-04T12:41:15.556Z,103791.22
2023-02-04T12:43:41.880Z,103793.81
2023-02-04T12:46:08.299Z,103802.16
2023-02-04T12:48:34.712Z,103803.66
2023-02-04T12:51:01.285Z,103804.97
2023-02-04T12:53:27.835Z,103804.16
2023-02-04T12:55:55.077Z,103799.56
2023-02-04T12:58:22.109Z,103800.69
2023-02-04T13:00:48.713Z,103803.28
2023-02-04T13:03:15.129Z,103798.78
2023-02-04T13:05:41.545Z,103802.25
2023-02-04T13:08:08.207Z,103810.22
2023-02-04T13:10:34.976Z,103810.47
2023-02-04T13:13:04.059Z,103810.72
2023-02-04T13:15:31.331Z,103820.50
2023-02-04T13:17:58.104Z,103815.88
2023-02-04T13:20:24.460Z,103822.13
2023-02-04T13:22:50.818Z,103815.09
2023-02-04T13:25:17.365Z,103816.09
2023-02-04T13:27:43.767Z,103805.44
2023-02-04T13:30:13.383Z,103812.13
2023-02-04T13:32:40.973Z,103810.69
2023-02-04T13:35:07.557Z,103813.03
2023-02-04T13:37:34.016Z,103816.84
2023-02-04T13:40:00.449Z,103820.00
2023-02-04T13:42:26.849Z,103814.06
2023-02-04T13:44:55.054Z,103820.00
2023-02-04T13:47:21.476Z,103821.53
2023-02-04T13:49:48.030Z,103814.44
2023-02-04T13:52:14.411Z,103817.41
2023-02-04T13:54:40.769Z,103820.75
2023-02-04T13:57:07.134Z,103824.22
2023-02-04T13:59:33.518Z,103823.59
2023-02-04T14:01:59.977Z,103837.19
2023-02-04T14:04:27.059Z,103829.63
2023-02-04T14:06:55.152Z,103841.31
2023-02-04T14:09:21.749Z,103829.72
2023-02-04T14:11:48.112Z,103834.59
2023-02-04T14:14:14.551Z,103829.06
2023-02-04T14:16:40.996Z,103828.69
2023-02-04T14:19:07.501Z,103839.75
2023-02-04T14:21:33.873Z,103840.22
2023-02-04T14:24:00.952Z,103836.63
2023-02-04T14:26:27.502Z,103844.78
2023-02-04T14:28:53.853Z,103847.25
2023-02-04T14:31:20.285Z,103838.00
2023-02-04T14:33:48.566Z,103845.53
2023-02-04T14:36:16.297Z,103844.50
2023-02-04T14:38:42.700Z,103848.94
2023-02-04T14:41:09.096Z,103849.31
2023-02-04T14:43:37.225Z,103850.16
2023-02-04T14:46:05.540Z,103862.84
2023-02-04T14:48:32.165Z,103862.50
2023-02-04T14:50:58.514Z,103854.78
2023-02-04T14:53:24.899Z,103860.13
2023-02-04T14:55:51.257Z,103857.44
2023-02-04T14:58:17.699Z,103867.44
2023-02-04T15:00:44.028Z,103857.50
2023-02-04T15:03:10.409Z,103864.03
2023-02-04T15:05:36.769Z,103854.53
2023-02-04T15:08:03.512Z,103860.16
2023-02-04T15:10:29.952Z,103852.19
2023-02-04T15:12:56.600Z,103859.88
2023-02-04T15:15:22.957Z,103861.75
2023-02-04T15:17:50.453Z,103864.19
2023-02-04T15:20:17.072Z,103869.44
2023-02-04T15:22:43.479Z,103863.00
2023-02-04T15:25:14.542Z,103860.75
2023-02-04T15:27:40.977Z,103866.69
2023-02-04T15:30:07.680Z,103855.22
2023-02-04T15:32:34.056Z,103851.84
2023-02-04T15:35:00.395Z,103855.94
2023-02-04T15:37:26.917Z,103858.00
2023-02-04T15:39:53.326Z,103858.72
2023-02-04T15:42:19.742Z,103864.50
2023-02-04T15:44:46.081Z,103864.91
2023-02-04T15:47:12.517Z,103867.69
2023-02-04T15:49:38.866Z,103857.78
2023-02-04T15:52:07.148Z,103851.59
2023-02-04T15:54:37.846Z,103850.31
2023-02-04T15:57:04.331Z,103859.66
2023-02-04T15:59:30.713Z,103865.06
2023-02-04T16:01:57.084Z,103871.56
2023-02-04T16:04:23.409Z,103872.41
2023-02-04T16:06:58.167Z,103865.31
2023-02-04T16:09:25.281Z,103874.41
2023-02-04T16:11:52.749Z,103876.84
2023-02-04T16:14:19.118Z,103878.50
2023-02-04T16:16:45.589Z,103875.19
2023-02-04T16:19:11.922Z,103872.63
2023-02-04T16:21:38.350Z,103877.25
2023-02-04T16:24:05.054Z,103875.63
2023-02-04T16:26:32.373Z,103878.38
2023-02-04T16:28:59.054Z,103880.66
2023-02-04T16:31:25.560Z,103876.88
2023-02-04T16:33:51.998Z,103877.22
2023-02-04T16:36:19.214Z,103876.56
2023-02-04T16:38:45.670Z,103880.81
2023-02-04T16:41:14.202Z,103880.34
2023-02-04T16:43:40.654Z,103881.41
2023-02-04T16:46:07.155Z,103890.63
2023-02-04T16:48:36.038Z,103896.47
2023-02-04T16:51:02.643Z,103887.78
2023-02-04T16:53:28.991Z,103897.38
2023-02-04T16:55:55.819Z,103888.66
2023-02-04T16:58:22.843Z,103893.03
2023-02-04T17:00:50.201Z,103893.34
2023-02-04T17:03:16.849Z,103897.72
2023-02-04T17:05:43.779Z,103895.00
2023-02-04T17:08:12.619Z,103895.16
2023-02-04T17:10:58.347Z,103891.72
2023-02-04T17:13:24.674Z,103902.88
2023-02-04T17:15:51.110Z,103903.63
2023-02-04T17:18:17.710Z,103904.72
2023-02-04T17:20:44.088Z,103901.81
2023-02-04T17:23:10.468Z,103901.53
2023-02-04T17:25:36.846Z,103903.34
2023-02-04T17:28:03.261Z,103899.59
2023-02-04T17:30:29.706Z,103900.66
2023-02-04T17:32:56.088Z,103907.44
2023-02-04T17:35:22.474Z,103905.31
2023-02-04T17:37:48.833Z,103903.81
2023-02-04T17:40:15.343Z,103900.94
2023-02-04T17:42:41.720Z,103897.34
2023-02-04T17:45:10.684Z,103899.94
2023-02-04T17:47:40.510Z,103897.53
2023-02-04T17:50:10.061Z,103897.53
2023-02-04T17:52:37.771Z,103895.41
2023-02-04T17:55:20.302Z,103891.81
2023-02-04T17:57:46.647Z,103887.31
2023-02-04T18:00:17.073Z,103888.19
2023-02-04T18:02:46.169Z,103891.25
2023-02-04T18:05:34.643Z,103902.22
2023-02-04T18:08:24.461Z,103907.78
2023-02-04T18:10:53.315Z,103914.84
2023-02-04T18:13:25.192Z,103910.03
2023-02-04T18:15:58.005Z,103913.22
2023-02-04T18:18:32.432Z,103913.97
2023-02-04T18:21:16.822Z,103913.50
2023-02-04T18:23:45.799Z,103913.06
2023-02-04T18:26:17.881Z,103912.44
2023-02-04T18:28:47.357Z,103912.72
2023-02-04T18:31:34.364Z,103911.38
2023-02-04T18:34:11.018Z,103913.22
2023-02-04T18:36:37.808Z,103913.06
2023-02-04T18:39:39.811Z,103907.19
2023-02-04T18:42:14.305Z,103910.03
2023-02-04T18:44:41.411Z,103910.19
2023-02-04T18:47:29.376Z,103915.91
2023-02-04T18:49:55.931Z,103915.16
2023-02-04T18:52:22.638Z,103924.34
2023-02-04T18:54:58.191Z,103920.13
2023-02-04T18:57:33.654Z,103924.94
2023-02-04T19:00:19.478Z,103910.47
2023-02-04T19:02:53.830Z,103916.81
2023-02-04T19:05:35.366Z,103918.00
2023-02-04T19:08:04.646Z,103922.22
2023-02-04T19:10:39.966Z,103927.03
2023-02-04T19:13:15.707Z,103920.41
2023-02-04T19:15:42.116Z,103922.34
2023-02-04T19:18:28.783Z,103918.31
2023-02-04T19:20:56.273Z,103913.97
2023-02-04T19:23:23.881Z,103921.34
2023-02-04T19:25:52.098Z,103914.41
2023-02-04T19:28:28.097Z,103916.38
2023-02-04T19:31:04.761Z,103912.28
2023-02-04T19:33:33.013Z,103909.59
2023-02-04T19:36:15.064Z,103907.47
2023-02-04T19:38:45.133Z,103915.28
2023-02-04T19:41:26.010Z,103912.13
2023-02-04T19:43:57.350Z,103918.31
2023-02-04T19:46:29.095Z,103920.25
2023-02-04T19:48:56.404Z,103910.50
2023-02-04T19:51:29.100Z,103928.06
2023-02-04T19:54:10.289Z,103922.00
2023-02-04T19:56:39.594Z,103916.59
2023-02-04T19:59:32.241Z,103914.81
2023-02-04T20:02:35.735Z,103914.50
2023-02-04T20:05:15.742Z,103902.91
2023-02-04T20:07:42.083Z,103903.78
2023-02-04T20:10:08.899Z,103910.09
2023-02-04T20:12:35.240Z,103905.28
2023-02-04T20:15:11.998Z,103903.47
2023-02-04T20:17:45.858Z,103911.44
2023-02-04T20:20:21.243Z,103908.56
2023-02-04T20:23:01.873Z,103899.53
2023-02-04T20:25:44.963Z,103895.03
2023-02-04T20:28:35.836Z,103892.03
2023-02-04T20:31:03.324Z,103894.44
2023-02-04T20:33:34.768Z,103889.59
2023-02-04T20:36:40.801Z,103886.00
2023-02-04T20:39:37.948Z,103878.03
2023-02-04T20:42:35.262Z,103876.50
2023-02-04T20:45:40.976Z,103876.34
2023-02-04T20:48:16.356Z,103872.16
2023-02-04T20:50:45.581Z,103880.72
2023-02-04T20:53:11.833Z,103882.84
2023-02-04T20:55:38.325Z,103882.69
2023-02-04T20:58:07.401Z,103885.34
2023-02-04T21:00:38.674Z,103880.78
2023-02-04T21:03:20.632Z,103894.91
2023-02-04T21:05:49.904Z,103895.31
2023-02-04T21:08:37.227Z,103907.00
2023-02-04T21:11:04.646Z,103911.78
2023-02-04T21:13:31.513Z,103902.63
2023-02-04T21:15:58.530Z,103906.94
2023-02-04T21:18:25.336Z,103903.41
2023-02-04T21:20:51.839Z,103894.69
2023-02-04T21:23:18.851Z,103890.41
2023-02-04T21:25:45.366Z,103889.63
2023-02-04T21:28:12.405Z,103895.50
2023-02-04T21:30:38.998Z,103888.09
2023-02-04T21:33:05.538Z,103885.56
2023-02-04T21:35:32.287Z,103898.31
2023-02-04T21:37:58.963Z,103891.97
2023-02-04T21:40:26.508Z,103898.72
2023-02-04T21:42:53.394Z,103894.25
2023-02-04T21:45:21.839Z,103894.84
2023-02-04T21:47:49.413Z,103889.00
2023-02-04T21:50:17.815Z,103900.38
2023-02-04T21:52:44.330Z,103900.22
2023-02-04T21:55:12.587Z,103895.28
2023-02-04T21:57:39.250Z,103890.03
2023-02-04T22:00:07.407Z,103879.47
2023-02-04T22:02:33.771Z,103881.38
2023-02-04T22:05:00.857Z,103868.31
2023-02-04T22:07:27.197Z,103864.72
2023-02-04T22:09:53.572Z,103875.72
2023-02-04T22:12:20.452Z,103880.28
2023-02-04T22:14:46.959Z,103883.47
2023-02-04T22:17:13.284Z,103881.34
2023-02-04T22:19:39.664Z,103884.63
2023-02-04T22:22:06.016Z,103878.44
2023-02-04T22:24:32.442Z,103879.53
2023-02-04T22:26:59.313Z,103877.47
2023-02-04T22:29:29.826Z,103897.78
2023-02-04T22:31:56.453Z,103897.84
2023-02-04T22:34:22.904Z,103893.25
2023-02-04T22:36:49.257Z,103890.69
2023-02-04T22:39:15.632Z,103890.53
2023-02-04T22:41:42.013Z,103884.47
2023-02-04T22:44:08.566Z,103874.28
2023-02-04T22:46:35.200Z,103880.09
2023-02-04T22:49:01.599Z,103882.31
2023-02-04T22:51:27.943Z,103896.78
2023-02-04T22:53:54.445Z,103902.94
2023-02-04T22:56:21.458Z,103901.00
2023-02-04T22:58:47.943Z,103901.06
2023-02-04T23:01:14.543Z,103889.56
2023-02-04T23:03:41.070Z,103891.84
2023-02-04T23:06:07.476Z,103896.94
2023-02-04T23:08:34.091Z,103889.22
2023-02-04T23:11:00.476Z,103891.75
2023-02-04T23:13:26.910Z,103891.94
2023-02-04T23:15:53.325Z,103894.22
2023-02-04T23:18:19.820Z,103891.75
2023-02-04T23:20:46.201Z,103885.78
2023-02-04T23:23:17.538Z,103886.09
2023-02-04T23:25:45.941Z,103887.25
2023-02-04T23:28:12.532Z,103879.44
2023-02-04T23:30:39.192Z,103885.09
2023-02-04T23:33:05.616Z,103874.53
2023-02-04T23:35:32.879Z,103871.47
2023-02-04T23:37:59.455Z,103871.72
2023-02-04T23:40:25.780Z,103872.66
2023-02-04T23:42:52.163Z,103867.75
2023-02-04T23:45:18.528Z,103861.03
2023-02-04T23:47:44.894Z,103865.53
2023-02-04T23:50:11.274Z,103869.00
2023-02-04T23:52:37.763Z,103859.31
2023-02-04T23:55:05.290Z,103846.03
2023-02-04T23:57:31.704Z,103844.94
2023-02-04T23:59:58.044Z,103849.47
